sensor_id;sensor_type;location;lat;lon;timestamp;temperature;humidity
1413;DHT22;701;52.526;13.408;2023-05-10T00:01:07;12.90;7.60
1413;DHT22;701;52.526;13.408;2023-05-10T00:03:33;12.90;7.60
1413;DHT22;701;52.526;13.408;2023-05-10T00:05:59;12.90;7.60
1413;DHT22;701;52.526;13.408;2023-05-10T00:08:25;12.80;7.50
1413;DHT22;701;52.526;13.408;2023-05-10T00:10:51;12.80;7.50
1413;DHT22;701;52.526;13.408;2023-05-10T00:13:17;12.80;7.50
1413;DHT22;701;52.526;13.408;2023-05-10T00:15:42;12.80;7.50
1413;DHT22;701;52.526;13.408;2023-05-10T00:18:08;12.70;7.50
1413;DHT22;701;52.526;13.408;2023-05-10T00:20:34;12.70;7.80
1413;DHT22;701;52.526;13.408;2023-05-10T00:23:00;12.60;8.00
1413;DHT22;701;52.526;13.408;2023-05-10T00:25:26;12.60;8.30
1413;DHT22;701;52.526;13.408;2023-05-10T00:27:52;12.60;8.20
1413;DHT22;701;52.526;13.408;2023-05-10T00:30:17;12.60;8.50
1413;DHT22;701;52.526;13.408;2023-05-10T00:32:44;12.50;8.40
1413;DHT22;701;52.526;13.408;2023-05-10T00:35:10;12.50;8.50
1413;DHT22;701;52.526;13.408;2023-05-10T00:37:36;12.50;8.40
1413;DHT22;701;52.526;13.408;2023-05-10T00:40:01;12.50;8.70
1413;DHT22;701;52.526;13.408;2023-05-10T00:42:27;12.40;8.60
1413;DHT22;701;52.526;13.408;2023-05-10T00:44:54;12.40;8.60
1413;DHT22;701;52.526;13.408;2023-05-10T00:47:20;12.40;9.00
1413;DHT22;701;52.526;13.408;2023-05-10T00:49:46;12.30;9.00
1413;DHT22;701;52.526;13.408;2023-05-10T00:52:11;12.30;8.90
1413;DHT22;701;52.526;13.408;2023-05-10T00:54:37;12.20;9.00
1413;DHT22;701;52.526;13.408;2023-05-10T00:57:03;12.20;9.20
1413;DHT22;701;52.526;13.408;2023-05-10T00:59:29;12.10;9.20
1413;DHT22;701;52.526;13.408;2023-05-10T01:01:55;12.10;9.30
1413;DHT22;701;52.526;13.408;2023-05-10T01:04:21;12.10;9.40
1413;DHT22;701;52.526;13.408;2023-05-10T01:06:52;12.00;9.60
1413;DHT22;701;52.526;13.408;2023-05-10T01:09:22;12.00;9.60
1413;DHT22;701;52.526;13.408;2023-05-10T01:11:49;12.00;10.40
1413;DHT22;701;52.526;13.408;2023-05-10T01:14:15;11.90;9.90
1413;DHT22;701;52.526;13.408;2023-05-10T01:16:44;11.90;10.00
1413;DHT22;701;52.526;13.408;2023-05-10T01:40:45;11.50;11.10
1413;DHT22;701;52.526;13.408;2023-05-10T01:43:19;11.50;11.20
1413;DHT22;701;52.526;13.408;2023-05-10T01:45:59;11.40;11.50
1413;DHT22;701;52.526;13.408;2023-05-10T01:48:28;11.40;11.50
1413;DHT22;701;52.526;13.408;2023-05-10T01:50:55;11.30;11.70
1413;DHT22;701;52.526;13.408;2023-05-10T01:53:22;11.30;11.70
1413;DHT22;701;52.526;13.408;2023-05-10T01:55:52;11.30;12.00
1413;DHT22;701;52.526;13.408;2023-05-10T01:58:29;11.20;12.00
1413;DHT22;701;52.526;13.408;2023-05-10T02:00:57;11.20;12.70
1413;DHT22;701;52.526;13.408;2023-05-10T02:03:25;11.20;12.70
1413;DHT22;701;52.526;13.408;2023-05-10T02:05:53;11.10;12.50
1413;DHT22;701;52.526;13.408;2023-05-10T02:08:22;11.10;12.60
1413;DHT22;701;52.526;13.408;2023-05-10T02:10:50;11.10;12.90
1413;DHT22;701;52.526;13.408;2023-05-10T02:13:18;11.00;12.60
1413;DHT22;701;52.526;13.408;2023-05-10T02:15:47;11.00;13.00
1413;DHT22;701;52.526;13.408;2023-05-10T02:18:13;11.00;13.50
1413;DHT22;701;52.526;13.408;2023-05-10T02:20:42;11.00;13.00
1413;DHT22;701;52.526;13.408;2023-05-10T02:23:09;11.00;13.40
1413;DHT22;701;52.526;13.408;2023-05-10T02:25:36;10.90;13.30
1413;DHT22;701;52.526;13.408;2023-05-10T02:28:05;10.90;13.40
1413;DHT22;701;52.526;13.408;2023-05-10T02:30:33;10.90;13.80
1413;DHT22;701;52.526;13.408;2023-05-10T02:32:59;10.90;13.80
1413;DHT22;701;52.526;13.408;2023-05-10T02:35:27;10.90;13.50
1413;DHT22;701;52.526;13.408;2023-05-10T02:37:54;10.80;14.00
1413;DHT22;701;52.526;13.408;2023-05-10T02:40:21;10.80;13.70
1413;DHT22;701;52.526;13.408;2023-05-10T02:42:50;10.80;13.70
1413;DHT22;701;52.526;13.408;2023-05-10T02:45:20;10.80;14.00
1413;DHT22;701;52.526;13.408;2023-05-10T02:47:48;10.70;13.60
1413;DHT22;701;52.526;13.408;2023-05-10T02:50:14;10.70;13.60
1413;DHT22;701;52.526;13.408;2023-05-10T02:52:44;10.70;13.70
1413;DHT22;701;52.526;13.408;2023-05-10T02:55:13;10.70;13.90
1413;DHT22;701;52.526;13.408;2023-05-10T02:57:51;10.70;13.90
1413;DHT22;701;52.526;13.408;2023-05-10T03:00:17;10.70;14.40
1413;DHT22;701;52.526;13.408;2023-05-10T03:02:43;10.60;14.10
1413;DHT22;701;52.526;13.408;2023-05-10T03:05:09;10.60;14.10
1413;DHT22;701;52.526;13.408;2023-05-10T03:07:35;10.60;14.40
1413;DHT22;701;52.526;13.408;2023-05-10T03:10:02;10.60;14.20
1413;DHT22;701;52.526;13.408;2023-05-10T03:15:26;10.60;14.50
1413;DHT22;701;52.526;13.408;2023-05-10T03:18:03;10.50;14.30
1413;DHT22;701;52.526;13.408;2023-05-10T03:20:41;10.50;14.40
1413;DHT22;701;52.526;13.408;2023-05-10T03:25:45;10.50;14.40
1413;DHT22;701;52.526;13.408;2023-05-10T03:28:14;10.50;14.40
1413;DHT22;701;52.526;13.408;2023-05-10T03:30:42;10.50;14.50
1413;DHT22;701;52.526;13.408;2023-05-10T03:33:10;10.50;14.50
1413;DHT22;701;52.526;13.408;2023-05-10T03:35:40;10.50;14.60
1413;DHT22;701;52.526;13.408;2023-05-10T03:38:07;10.50;14.60
1413;DHT22;701;52.526;13.408;2023-05-10T03:40:33;10.40;14.70
1413;DHT22;701;52.526;13.408;2023-05-10T03:42:59;10.50;14.50
1413;DHT22;701;52.526;13.408;2023-05-10T03:45:26;10.50;14.50
1413;DHT22;701;52.526;13.408;2023-05-10T03:47:52;10.50;14.50
1413;DHT22;701;52.526;13.408;2023-05-10T03:50:18;10.50;14.50
1413;DHT22;701;52.526;13.408;2023-05-10T03:52:44;10.50;14.70
1413;DHT22;701;52.526;13.408;2023-05-10T03:55:10;10.50;14.60
1413;DHT22;701;52.526;13.408;2023-05-10T03:57:37;10.50;14.70
1413;DHT22;701;52.526;13.408;2023-05-10T04:00:03;10.50;15.40
1413;DHT22;701;52.526;13.408;2023-05-10T04:02:40;10.50;14.60
1413;DHT22;701;52.526;13.408;2023-05-10T04:05:08;10.50;14.40
1413;DHT22;701;52.526;13.408;2023-05-10T04:07:34;10.50;14.60
1413;DHT22;701;52.526;13.408;2023-05-10T04:10:00;10.50;14.50
1413;DHT22;701;52.526;13.408;2023-05-10T04:12:26;10.60;15.00
1413;DHT22;701;52.526;13.408;2023-05-10T04:14:52;10.60;14.20
1413;DHT22;701;52.526;13.408;2023-05-10T04:17:17;10.60;14.20
1413;DHT22;701;52.526;13.408;2023-05-10T04:19:43;10.60;14.20
1413;DHT22;701;52.526;13.408;2023-05-10T04:22:09;10.70;14.10
1413;DHT22;701;52.526;13.408;2023-05-10T04:24:35;10.70;13.90
1413;DHT22;701;52.526;13.408;2023-05-10T04:27:00;10.70;13.80
1413;DHT22;701;52.526;13.408;2023-05-10T04:29:26;10.80;13.80
1413;DHT22;701;52.526;13.408;2023-05-10T04:31:52;10.80;13.70
1413;DHT22;701;52.526;13.408;2023-05-10T04:34:20;10.80;13.70
1413;DHT22;701;52.526;13.408;2023-05-10T04:36:46;10.90;13.80
1413;DHT22;701;52.526;13.408;2023-05-10T04:39:12;10.90;13.80
1413;DHT22;701;52.526;13.408;2023-05-10T04:41:39;10.90;13.80
1413;DHT22;701;52.526;13.408;2023-05-10T04:44:05;11.00;13.80
1413;DHT22;701;52.526;13.408;2023-05-10T04:46:30;11.00;13.60
1413;DHT22;701;52.526;13.408;2023-05-10T04:48:56;11.10;13.40
1413;DHT22;701;52.526;13.408;2023-05-10T04:51:22;11.10;13.30
1413;DHT22;701;52.526;13.408;2023-05-10T04:53:48;11.20;13.10
1413;DHT22;701;52.526;13.408;2023-05-10T04:56:13;11.30;13.00
1413;DHT22;701;52.526;13.408;2023-05-10T04:58:39;11.30;12.80
1413;DHT22;701;52.526;13.408;2023-05-10T05:01:06;11.40;12.70
1413;DHT22;701;52.526;13.408;2023-05-10T05:03:32;11.50;12.60
1413;DHT22;701;52.526;13.408;2023-05-10T05:05:59;11.50;12.40
1413;DHT22;701;52.526;13.408;2023-05-10T05:08:24;11.60;12.20
1413;DHT22;701;52.526;13.408;2023-05-10T05:10:50;11.70;12.20
1413;DHT22;701;52.526;13.408;2023-05-10T05:13:16;11.80;12.00
1413;DHT22;701;52.526;13.408;2023-05-10T05:15:42;11.80;12.30
1413;DHT22;701;52.526;13.408;2023-05-10T05:18:07;11.90;11.60
1413;DHT22;701;52.526;13.408;2023-05-10T05:20:33;12.00;11.50
1413;DHT22;701;52.526;13.408;2023-05-10T05:23:00;12.10;11.40
1413;DHT22;701;52.526;13.408;2023-05-10T05:25:26;12.20;10.90
1413;DHT22;701;52.526;13.408;2023-05-10T05:27:51;12.30;11.00
1413;DHT22;701;52.526;13.408;2023-05-10T05:30:17;12.30;11.00
1413;DHT22;701;52.526;13.408;2023-05-10T05:32:43;12.40;11.00
1413;DHT22;701;52.526;13.408;2023-05-10T05:35:09;12.50;10.70
1413;DHT22;701;52.526;13.408;2023-05-10T05:37:35;12.60;10.50
1413;DHT22;701;52.526;13.408;2023-05-10T05:40:01;12.70;10.30
1413;DHT22;701;52.526;13.408;2023-05-10T05:42:27;12.80;10.00
1413;DHT22;701;52.526;13.408;2023-05-10T05:44:53;12.90;9.80
1413;DHT22;701;52.526;13.408;2023-05-10T05:47:19;13.00;9.70
1413;DHT22;701;52.526;13.408;2023-05-10T05:49:44;13.00;9.40
1413;DHT22;701;52.526;13.408;2023-05-10T05:52:13;13.20;9.30
1413;DHT22;701;52.526;13.408;2023-05-10T05:54:39;13.20;9.10
1413;DHT22;701;52.526;13.408;2023-05-10T05:57:05;13.40;9.00
1413;DHT22;701;52.526;13.408;2023-05-10T05:59:30;13.40;8.80
1413;DHT22;701;52.526;13.408;2023-05-10T06:01:56;13.50;8.60
1413;DHT22;701;52.526;13.408;2023-05-10T06:04:22;13.60;8.30
1413;DHT22;701;52.526;13.408;2023-05-10T06:06:48;13.70;8.70
1413;DHT22;701;52.526;13.408;2023-05-10T06:09:14;13.80;8.20
1413;DHT22;701;52.526;13.408;2023-05-10T06:11:40;14.00;8.20
1413;DHT22;701;52.526;13.408;2023-05-10T06:14:06;14.10;7.80
1413;DHT22;701;52.526;13.408;2023-05-10T06:16:33;14.20;7.50
1413;DHT22;701;52.526;13.408;2023-05-10T06:18:59;14.30;7.50
1413;DHT22;701;52.526;13.408;2023-05-10T06:21:25;14.40;7.40
1413;DHT22;701;52.526;13.408;2023-05-10T06:23:51;14.50;7.10
1413;DHT22;701;52.526;13.408;2023-05-10T06:26:17;14.60;7.00
1413;DHT22;701;52.526;13.408;2023-05-10T06:28:42;14.70;6.60
1413;DHT22;701;52.526;13.408;2023-05-10T06:31:08;14.80;6.40
1413;DHT22;701;52.526;13.408;2023-05-10T06:33:34;14.90;6.40
1413;DHT22;701;52.526;13.408;2023-05-10T06:36:00;15.00;6.30
1413;DHT22;701;52.526;13.408;2023-05-10T06:38:26;15.10;5.90
1413;DHT22;701;52.526;13.408;2023-05-10T06:40:52;15.20;5.80
1413;DHT22;701;52.526;13.408;2023-05-10T06:43:18;15.30;5.30
1413;DHT22;701;52.526;13.408;2023-05-10T06:45:43;15.40;5.40
1413;DHT22;701;52.526;13.408;2023-05-10T06:48:09;15.50;5.30
1413;DHT22;701;52.526;13.408;2023-05-10T06:50:35;15.60;5.50
1413;DHT22;701;52.526;13.408;2023-05-10T06:53:01;15.60;5.20
1413;DHT22;701;52.526;13.408;2023-05-10T06:55:28;15.80;4.90
1413;DHT22;701;52.526;13.408;2023-05-10T06:57:54;15.90;4.70
1413;DHT22;701;52.526;13.408;2023-05-10T07:00:20;16.00;4.50
1413;DHT22;701;52.526;13.408;2023-05-10T07:02:46;16.30;4.20
1413;DHT22;701;52.526;13.408;2023-05-10T07:05:12;17.50;2.90
1413;DHT22;701;52.526;13.408;2023-05-10T07:07:38;19.60;1.10
1413;DHT22;701;52.526;13.408;2023-05-10T07:10:05;21.90;1.00
1413;DHT22;701;52.526;13.408;2023-05-10T07:12:31;24.20;1.00
1413;DHT22;701;52.526;13.408;2023-05-10T07:14:57;26.30;1.00
1413;DHT22;701;52.526;13.408;2023-05-10T07:17:22;27.90;1.00
1413;DHT22;701;52.526;13.408;2023-05-10T07:19:48;29.80;1.00
1413;DHT22;701;52.526;13.408;2023-05-10T07:22:15;31.40;1.00
1413;DHT22;701;52.526;13.408;2023-05-10T07:24:42;32.80;1.00
1413;DHT22;701;52.526;13.408;2023-05-10T07:27:08;34.10;1.00
1413;DHT22;701;52.526;13.408;2023-05-10T07:29:35;35.00;1.00
1413;DHT22;701;52.526;13.408;2023-05-10T07:32:01;35.90;1.00
1413;DHT22;701;52.526;13.408;2023-05-10T07:34:27;36.80;1.00
1413;DHT22;701;52.526;13.408;2023-05-10T07:36:54;37.50;1.00
1413;DHT22;701;52.526;13.408;2023-05-10T07:39:20;38.20;1.00
1413;DHT22;701;52.526;13.408;2023-05-10T07:41:48;38.60;1.00
1413;DHT22;701;52.526;13.408;2023-05-10T07:44:14;38.90;1.00
1413;DHT22;701;52.526;13.408;2023-05-10T07:46:40;39.00;1.00
1413;DHT22;701;52.526;13.408;2023-05-10T07:51:33;39.80;1.00
1413;DHT22;701;52.526;13.408;2023-05-10T07:54:02;39.80;1.00
1413;DHT22;701;52.526;13.408;2023-05-10T07:56:30;40.10;1.00
1413;DHT22;701;52.526;13.408;2023-05-10T07:58:58;40.50;1.00
1413;DHT22;701;52.526;13.408;2023-05-10T08:01:24;40.70;1.00
1413;DHT22;701;52.526;13.408;2023-05-10T08:03:50;40.60;1.00
1413;DHT22;701;52.526;13.408;2023-05-10T08:06:20;40.70;1.00
1413;DHT22;701;52.526;13.408;2023-05-10T08:08:47;40.80;1.00
1413;DHT22;701;52.526;13.408;2023-05-10T08:11:22;41.10;1.00
1413;DHT22;701;52.526;13.408;2023-05-10T08:13:48;41.40;1.00
1413;DHT22;701;52.526;13.408;2023-05-10T08:16:15;41.70;1.00
1413;DHT22;701;52.526;13.408;2023-05-10T08:18:41;42.00;1.00
1413;DHT22;701;52.526;13.408;2023-05-10T08:21:07;42.40;1.00
1413;DHT22;701;52.526;13.408;2023-05-10T08:23:33;42.30;1.00
1413;DHT22;701;52.526;13.408;2023-05-10T08:25:59;42.00;1.00
1413;DHT22;701;52.526;13.408;2023-05-10T08:28:25;42.00;1.00
1413;DHT22;701;52.526;13.408;2023-05-10T08:30:51;41.70;1.00
1413;DHT22;701;52.526;13.408;2023-05-10T08:33:20;41.60;1.00
1413;DHT22;701;52.526;13.408;2023-05-10T08:35:46;41.40;1.00
1413;DHT22;701;52.526;13.408;2023-05-10T08:38:11;41.60;1.00
1413;DHT22;701;52.526;13.408;2023-05-10T08:40:39;41.70;1.00
1413;DHT22;701;52.526;13.408;2023-05-10T08:43:07;42.20;1.00
1413;DHT22;701;52.526;13.408;2023-05-10T08:45:40;42.30;1.00
1413;DHT22;701;52.526;13.408;2023-05-10T08:48:08;41.80;1.00
1413;DHT22;701;52.526;13.408;2023-05-10T08:50:38;40.90;1.00
1413;DHT22;701;52.526;13.408;2023-05-10T08:53:06;40.50;1.00
1413;DHT22;701;52.526;13.408;2023-05-10T08:55:33;39.90;1.00
1413;DHT22;701;52.526;13.408;2023-05-10T08:58:00;39.90;1.00
1413;DHT22;701;52.526;13.408;2023-05-10T09:00:26;39.80;1.00
1413;DHT22;701;52.526;13.408;2023-05-10T09:02:52;38.90;1.00
1413;DHT22;701;52.526;13.408;2023-05-10T09:05:19;39.10;1.00
1413;DHT22;701;52.526;13.408;2023-05-10T09:07:45;39.20;1.00
1413;DHT22;701;52.526;13.408;2023-05-10T09:10:11;39.10;1.00
1413;DHT22;701;52.526;13.408;2023-05-10T09:12:37;39.10;1.00
1413;DHT22;701;52.526;13.408;2023-05-10T09:15:04;39.30;1.00
1413;DHT22;701;52.526;13.408;2023-05-10T09:17:31;39.20;1.00
1413;DHT22;701;52.526;13.408;2023-05-10T09:20:02;39.10;1.00
1413;DHT22;701;52.526;13.408;2023-05-10T09:22:28;39.20;1.00
1413;DHT22;701;52.526;13.408;2023-05-10T09:25:16;39.00;1.00
1413;DHT22;701;52.526;13.408;2023-05-10T09:27:45;38.70;1.00
1413;DHT22;701;52.526;13.408;2023-05-10T09:30:16;38.30;1.00
1413;DHT22;701;52.526;13.408;2023-05-10T09:32:44;38.10;1.00
1413;DHT22;701;52.526;13.408;2023-05-10T09:35:11;38.20;1.00
1413;DHT22;701;52.526;13.408;2023-05-10T09:37:40;38.40;1.00
1413;DHT22;701;52.526;13.408;2023-05-10T09:40:13;38.60;1.00
1413;DHT22;701;52.526;13.408;2023-05-10T09:42:41;38.40;1.00
1413;DHT22;701;52.526;13.408;2023-05-10T09:45:07;37.80;1.00
1413;DHT22;701;52.526;13.408;2023-05-10T09:47:37;37.20;1.00
1413;DHT22;701;52.526;13.408;2023-05-10T09:50:03;36.60;1.00
1413;DHT22;701;52.526;13.408;2023-05-10T09:52:50;36.60;1.00
1413;DHT22;701;52.526;13.408;2023-05-10T09:55:18;36.70;1.00
1413;DHT22;701;52.526;13.408;2023-05-10T09:57:46;36.40;1.00
1413;DHT22;701;52.526;13.408;2023-05-10T10:00:17;35.90;1.00
1413;DHT22;701;52.526;13.408;2023-05-10T10:02:45;35.50;1.00
1413;DHT22;701;52.526;13.408;2023-05-10T10:05:11;35.40;1.00
1413;DHT22;701;52.526;13.408;2023-05-10T10:07:37;35.50;1.00
1413;DHT22;701;52.526;13.408;2023-05-10T10:10:03;35.40;1.00
1413;DHT22;701;52.526;13.408;2023-05-10T10:12:30;35.40;1.00
1413;DHT22;701;52.526;13.408;2023-05-10T10:14:56;35.10;1.00
1413;DHT22;701;52.526;13.408;2023-05-10T10:17:25;34.90;1.00
1413;DHT22;701;52.526;13.408;2023-05-10T10:19:53;34.70;1.00
1413;DHT22;701;52.526;13.408;2023-05-10T10:22:19;34.60;1.00
1413;DHT22;701;52.526;13.408;2023-05-10T10:24:45;34.20;1.00
1413;DHT22;701;52.526;13.408;2023-05-10T10:27:24;33.80;1.00
1413;DHT22;701;52.526;13.408;2023-05-10T10:30:18;33.30;1.00
1413;DHT22;701;52.526;13.408;2023-05-10T10:33:06;32.80;1.00
1413;DHT22;701;52.526;13.408;2023-05-10T10:35:34;32.60;1.00
1413;DHT22;701;52.526;13.408;2023-05-10T10:38:00;32.40;1.00
1413;DHT22;701;52.526;13.408;2023-05-10T10:40:31;32.30;1.00
1413;DHT22;701;52.526;13.408;2023-05-10T10:42:57;32.00;1.00
1413;DHT22;701;52.526;13.408;2023-05-10T10:45:24;31.80;1.00
1413;DHT22;701;52.526;13.408;2023-05-10T10:50:45;31.50;1.00
1413;DHT22;701;52.526;13.408;2023-05-10T10:53:11;31.30;1.00
1413;DHT22;701;52.526;13.408;2023-05-10T10:55:48;31.00;1.00
1413;DHT22;701;52.526;13.408;2023-05-10T10:58:31;31.00;1.00
1413;DHT22;701;52.526;13.408;2023-05-10T11:03:37;30.50;1.00
1413;DHT22;701;52.526;13.408;2023-05-10T11:06:03;30.20;1.00
1413;DHT22;701;52.526;13.408;2023-05-10T11:08:33;29.80;1.00
1413;DHT22;701;52.526;13.408;2023-05-10T11:13:30;29.30;1.00
1413;DHT22;701;52.526;13.408;2023-05-10T11:15:56;29.20;1.00
1413;DHT22;701;52.526;13.408;2023-05-10T11:21:01;28.70;1.00
1413;DHT22;701;52.526;13.408;2023-05-10T11:26:17;28.00;1.00
1413;DHT22;701;52.526;13.408;2023-05-10T11:28:44;27.70;1.00
1413;DHT22;701;52.526;13.408;2023-05-10T11:31:13;27.40;1.00
1413;DHT22;701;52.526;13.408;2023-05-10T11:33:48;27.10;1.00
1413;DHT22;701;52.526;13.408;2023-05-10T11:36:16;26.80;1.00
1413;DHT22;701;52.526;13.408;2023-05-10T11:38:43;26.40;1.00
1413;DHT22;701;52.526;13.408;2023-05-10T11:41:12;26.10;1.00
1413;DHT22;701;52.526;13.408;2023-05-10T11:43:42;25.90;1.00
1413;DHT22;701;52.526;13.408;2023-05-10T11:46:13;25.60;1.00
1413;DHT22;701;52.526;13.408;2023-05-10T11:48:39;25.30;1.00
1413;DHT22;701;52.526;13.408;2023-05-10T11:51:07;25.10;1.00
1413;DHT22;701;52.526;13.408;2023-05-10T11:53:33;24.80;1.00
1413;DHT22;701;52.526;13.408;2023-05-10T11:56:09;24.60;1.00
1413;DHT22;701;52.526;13.408;2023-05-10T11:58:36;24.40;1.00
1413;DHT22;701;52.526;13.408;2023-05-10T12:01:04;24.30;1.00
1413;DHT22;701;52.526;13.408;2023-05-10T12:03:31;24.10;1.00
1413;DHT22;701;52.526;13.408;2023-05-10T12:05:57;23.90;1.00
1413;DHT22;701;52.526;13.408;2023-05-10T12:08:25;23.90;1.00
1413;DHT22;701;52.526;13.408;2023-05-10T12:10:53;23.80;1.00
1413;DHT22;701;52.526;13.408;2023-05-10T12:13:20;23.80;1.00
1413;DHT22;701;52.526;13.408;2023-05-10T12:15:46;23.70;1.00
1413;DHT22;701;52.526;13.408;2023-05-10T12:18:13;23.70;1.00
1413;DHT22;701;52.526;13.408;2023-05-10T12:20:39;23.70;1.00
1413;DHT22;701;52.526;13.408;2023-05-10T12:23:07;23.60;1.00
1413;DHT22;701;52.526;13.408;2023-05-10T12:25:35;23.60;1.00
1413;DHT22;701;52.526;13.408;2023-05-10T12:28:07;23.60;1.00
1413;DHT22;701;52.526;13.408;2023-05-10T12:30:34;23.60;1.00
1413;DHT22;701;52.526;13.408;2023-05-10T12:33:02;23.50;1.00
1413;DHT22;701;52.526;13.408;2023-05-10T12:35:32;23.50;1.00
1413;DHT22;701;52.526;13.408;2023-05-10T12:37:58;23.50;1.00
1413;DHT22;701;52.526;13.408;2023-05-10T12:40:24;23.60;1.00
1413;DHT22;701;52.526;13.408;2023-05-10T12:42:50;23.60;1.00
1413;DHT22;701;52.526;13.408;2023-05-10T12:45:17;23.60;1.00
1413;DHT22;701;52.526;13.408;2023-05-10T12:47:43;23.60;1.00
1413;DHT22;701;52.526;13.408;2023-05-10T12:50:09;23.70;1.00
1413;DHT22;701;52.526;13.408;2023-05-10T12:52:35;23.70;1.00
1413;DHT22;701;52.526;13.408;2023-05-10T12:55:01;23.80;1.00
1413;DHT22;701;52.526;13.408;2023-05-10T12:57:28;23.90;1.00
1413;DHT22;701;52.526;13.408;2023-05-10T12:59:54;23.90;1.00
1413;DHT22;701;52.526;13.408;2023-05-10T13:02:20;24.00;1.00
1413;DHT22;701;52.526;13.408;2023-05-10T13:04:48;24.00;1.00
1413;DHT22;701;52.526;13.408;2023-05-10T13:07:14;23.90;1.00
1413;DHT22;701;52.526;13.408;2023-05-10T13:09:40;24.00;1.00
1413;DHT22;701;52.526;13.408;2023-05-10T13:12:06;24.00;1.00
1413;DHT22;701;52.526;13.408;2023-05-10T13:14:32;24.00;1.00
1413;DHT22;701;52.526;13.408;2023-05-10T13:16:58;24.00;1.00
1413;DHT22;701;52.526;13.408;2023-05-10T13:19:24;24.00;1.00
1413;DHT22;701;52.526;13.408;2023-05-10T13:21:50;24.10;1.00
1413;DHT22;701;52.526;13.408;2023-05-10T13:24:16;24.10;1.00
1413;DHT22;701;52.526;13.408;2023-05-10T13:26:43;24.20;1.00
1413;DHT22;701;52.526;13.408;2023-05-10T13:29:08;24.20;1.00
1413;DHT22;701;52.526;13.408;2023-05-10T13:31:34;24.20;1.00
1413;DHT22;701;52.526;13.408;2023-05-10T13:34:01;24.30;1.00
1413;DHT22;701;52.526;13.408;2023-05-10T13:36:28;24.30;1.00
1413;DHT22;701;52.526;13.408;2023-05-10T13:38:54;24.40;1.00
1413;DHT22;701;52.526;13.408;2023-05-10T13:41:19;24.40;1.00
1413;DHT22;701;52.526;13.408;2023-05-10T13:43:45;24.50;1.00
1413;DHT22;701;52.526;13.408;2023-05-10T13:46:11;24.60;1.00
1413;DHT22;701;52.526;13.408;2023-05-10T13:48:36;24.70;1.00
1413;DHT22;701;52.526;13.408;2023-05-10T13:51:03;24.80;1.00
1413;DHT22;701;52.526;13.408;2023-05-10T13:53:29;24.90;1.00
1413;DHT22;701;52.526;13.408;2023-05-10T13:55:54;25.00;1.00
1413;DHT22;701;52.526;13.408;2023-05-10T13:58:20;25.10;1.00
1413;DHT22;701;52.526;13.408;2023-05-10T14:00:46;25.10;1.00
1413;DHT22;701;52.526;13.408;2023-05-10T14:03:12;25.20;1.00
1413;DHT22;701;52.526;13.408;2023-05-10T14:05:37;25.30;1.00
1413;DHT22;701;52.526;13.408;2023-05-10T14:08:03;25.30;1.00
1413;DHT22;701;52.526;13.408;2023-05-10T14:10:29;25.40;1.00
1413;DHT22;701;52.526;13.408;2023-05-10T14:12:55;25.50;1.00
1413;DHT22;701;52.526;13.408;2023-05-10T14:15:21;25.60;1.00
1413;DHT22;701;52.526;13.408;2023-05-10T14:17:47;25.70;1.00
1413;DHT22;701;52.526;13.408;2023-05-10T14:20:13;25.70;1.00
1413;DHT22;701;52.526;13.408;2023-05-10T14:22:39;25.80;1.00
1413;DHT22;701;52.526;13.408;2023-05-10T14:25:05;25.90;1.00
1413;DHT22;701;52.526;13.408;2023-05-10T14:27:32;26.00;1.00
1413;DHT22;701;52.526;13.408;2023-05-10T14:29:58;26.00;1.00
1413;DHT22;701;52.526;13.408;2023-05-10T14:32:23;26.00;1.00
1413;DHT22;701;52.526;13.408;2023-05-10T14:34:49;26.00;1.00
1413;DHT22;701;52.526;13.408;2023-05-10T14:37:15;26.00;1.00
1413;DHT22;701;52.526;13.408;2023-05-10T14:39:41;26.00;1.00
1413;DHT22;701;52.526;13.408;2023-05-10T14:42:08;26.00;1.00
1413;DHT22;701;52.526;13.408;2023-05-10T14:44:37;26.00;1.00
1413;DHT22;701;52.526;13.408;2023-05-10T14:47:02;26.00;1.00
1413;DHT22;701;52.526;13.408;2023-05-10T14:49:28;26.00;1.00
1413;DHT22;701;52.526;13.408;2023-05-10T14:51:54;26.00;1.00
1413;DHT22;701;52.526;13.408;2023-05-10T14:54:20;26.00;1.00
1413;DHT22;701;52.526;13.408;2023-05-10T14:56:46;26.00;1.00
1413;DHT22;701;52.526;13.408;2023-05-10T14:59:12;26.00;1.00
1413;DHT22;701;52.526;13.408;2023-05-10T15:01:37;26.00;1.00
1413;DHT22;701;52.526;13.408;2023-05-10T15:04:04;25.90;1.00
1413;DHT22;701;52.526;13.408;2023-05-10T15:06:35;25.90;1.00
1413;DHT22;701;52.526;13.408;2023-05-10T15:09:02;25.90;1.00
1413;DHT22;701;52.526;13.408;2023-05-10T15:11:29;25.90;1.00
1413;DHT22;701;52.526;13.408;2023-05-10T15:13:55;25.90;1.00
1413;DHT22;701;52.526;13.408;2023-05-10T15:16:21;25.90;1.00
1413;DHT22;701;52.526;13.408;2023-05-10T15:18:46;25.80;1.00
1413;DHT22;701;52.526;13.408;2023-05-10T15:21:12;25.70;1.00
1413;DHT22;701;52.526;13.408;2023-05-10T15:23:38;25.50;1.00
1413;DHT22;701;52.526;13.408;2023-05-10T15:26:03;25.30;1.00
1413;DHT22;701;52.526;13.408;2023-05-10T15:28:29;25.10;1.00
1413;DHT22;701;52.526;13.408;2023-05-10T15:30:55;24.90;1.00
1413;DHT22;701;52.526;13.408;2023-05-10T15:33:22;24.70;1.00
1413;DHT22;701;52.526;13.408;2023-05-10T15:35:48;24.40;1.00
1413;DHT22;701;52.526;13.408;2023-05-10T15:38:14;24.30;1.00
1413;DHT22;701;52.526;13.408;2023-05-10T15:40:40;24.10;1.00
1413;DHT22;701;52.526;13.408;2023-05-10T15:43:06;23.90;1.00
1413;DHT22;701;52.526;13.408;2023-05-10T15:45:32;23.80;1.00
1413;DHT22;701;52.526;13.408;2023-05-10T15:47:58;23.70;1.00
1413;DHT22;701;52.526;13.408;2023-05-10T15:50:26;23.60;1.00
1413;DHT22;701;52.526;13.408;2023-05-10T15:52:52;23.50;1.00
1413;DHT22;701;52.526;13.408;2023-05-10T15:55:19;23.50;1.00
1413;DHT22;701;52.526;13.408;2023-05-10T15:57:45;23.40;1.00
1413;DHT22;701;52.526;13.408;2023-05-10T16:00:12;23.30;1.00
1413;DHT22;701;52.526;13.408;2023-05-10T16:02:41;23.20;1.00
1413;DHT22;701;52.526;13.408;2023-05-10T16:05:07;23.10;1.00
1413;DHT22;701;52.526;13.408;2023-05-10T16:07:34;23.20;1.00
1413;DHT22;701;52.526;13.408;2023-05-10T16:10:00;23.30;1.00
1413;DHT22;701;52.526;13.408;2023-05-10T16:12:29;23.50;1.00
1413;DHT22;701;52.526;13.408;2023-05-10T16:14:55;23.70;1.00
1413;DHT22;701;52.526;13.408;2023-05-10T16:17:21;23.80;1.00
1413;DHT22;701;52.526;13.408;2023-05-10T16:19:47;23.90;1.00
1413;DHT22;701;52.526;13.408;2023-05-10T16:22:13;23.90;1.00
1413;DHT22;701;52.526;13.408;2023-05-10T16:24:39;23.80;1.00
1413;DHT22;701;52.526;13.408;2023-05-10T16:27:05;23.70;1.00
1413;DHT22;701;52.526;13.408;2023-05-10T16:29:30;23.70;1.00
1413;DHT22;701;52.526;13.408;2023-05-10T16:31:56;23.60;1.00
1413;DHT22;701;52.526;13.408;2023-05-10T16:34:22;23.50;1.00
1413;DHT22;701;52.526;13.408;2023-05-10T16:36:49;23.40;1.00
1413;DHT22;701;52.526;13.408;2023-05-10T16:39:16;23.40;1.00
1413;DHT22;701;52.526;13.408;2023-05-10T16:41:41;23.30;1.00
1413;DHT22;701;52.526;13.408;2023-05-10T16:44:07;23.30;1.00
1413;DHT22;701;52.526;13.408;2023-05-10T16:46:33;23.30;1.00
1413;DHT22;701;52.526;13.408;2023-05-10T16:48:59;23.30;1.00
1413;DHT22;701;52.526;13.408;2023-05-10T16:51:25;23.20;1.00
1413;DHT22;701;52.526;13.408;2023-05-10T16:53:51;23.10;1.00
1413;DHT22;701;52.526;13.408;2023-05-10T16:56:17;23.00;1.00